Time;durP1;ratioP1;P1;durP2;ratioP2;P2;SDS_P1;SDS_P2;PMS_P1;PMS_P2;Temp;Humidity;BMP_temperature;BMP_pressure;BME280_temperature;BME280_humidity;BME280_pressure;Samples;Min_cycle;Max_cycle;Signal;HPM_P1;HPM_P2
2022/03/09 00:02:24;;;;;;;9.30;5.30;;;;;;;-6.68;66.46;99145.20;104951;1271;61159;-29
2022/03/09 00:04:55;;;;;;;4.60;2.40;;;;;;;-6.88;66.70;99148.58;105158;1271;75517;-28
2022/03/09 00:07:30;;;;;;;5.60;2.80;;;;;;;-7.00;66.79;99150.86;104919;1271;73330;-29
2022/03/09 00:10:07;;;;;;;5.30;3.10;;;;;;;-7.04;66.71;99148.05;104823;1270;70953;-29
2022/03/09 00:12:54;;;;;;;7.50;4.20;;;;;;;-7.17;66.75;99147.64;104017;1271;1002975;-29
2022/03/09 00:15:35;;;;;;;8.50;5.20;;;;;;;-7.21;67.28;99145.65;104945;1271;61149;-29
2022/03/09 00:18:14;;;;;;;7.70;4.30;;;;;;;-7.28;67.56;99142.32;105005;1271;74070;-28
2022/03/09 00:20:52;;;;;;;11.70;6.40;;;;;;;-6.96;67.21;99141.38;105127;1271;73106;-29
2022/03/09 00:23:32;;;;;;;8.00;4.20;;;;;;;-6.21;65.27;99140.14;104953;1272;71164;-29
2022/03/09 00:26:11;;;;;;;5.20;3.30;;;;;;;-6.12;64.29;99139.67;105128;1274;61032;-29
2022/03/09 00:28:47;;;;;;;10.50;5.50;;;;;;;-6.27;64.55;99140.03;105103;1271;61118;-29
2022/03/09 00:31:17;;;;;;;7.80;4.30;;;;;;;-6.55;65.29;99135.26;105109;1271;75528;-29
2022/03/09 00:33:46;;;;;;;7.50;4.20;;;;;;;-6.72;66.34;99137.45;105126;1271;76029;-29
2022/03/09 00:36:15;;;;;;;5.90;2.90;;;;;;;-6.90;67.16;99139.14;104854;1274;74376;-29
2022/03/09 00:38:45;;;;;;;5.40;2.60;;;;;;;-7.14;67.75;99132.42;104991;1271;61247;-31
2022/03/09 00:41:14;;;;;;;2.60;1.90;;;;;;;-7.33;68.64;99131.89;104939;1274;62249;-32
2022/03/09 00:43:44;;;;;;;7.10;2.80;;;;;;;-7.54;69.05;99129.67;104694;1274;74651;-31
2022/03/09 00:46:13;;;;;;;6.00;3.10;;;;;;;-7.67;69.24;99133.30;104880;1271;75081;-31
2022/03/09 00:48:43;;;;;;;4.50;2.50;;;;;;;-7.75;69.37;99129.63;104734;1274;74784;-29
2022/03/09 00:51:12;;;;;;;6.40;3.00;;;;;;;-7.34;68.04;99125.48;105096;1274;63503;-32
2022/03/09 00:53:41;;;;;;;6.00;3.20;;;;;;;-6.51;65.48;99125.92;105101;1274;61151;-32
2022/03/09 00:56:11;;;;;;;13.00;5.90;;;;;;;-6.42;64.73;99124.31;105117;1274;75438;-31
2022/03/09 00:58:42;;;;;;;20.80;10.70;;;;;;;-6.60;64.54;99122.83;105103;1274;73706;-28
2022/03/09 01:01:11;;;;;;;10.70;5.10;;;;;;;-6.83;65.48;99127.09;105117;1274;72291;-28
2022/03/09 01:03:41;;;;;;;8.70;4.50;;;;;;;-7.06;66.63;99128.30;105148;1274;61093;-28
2022/03/09 01:06:12;;;;;;;11.40;5.50;;;;;;;-7.36;67.46;99126.52;105102;1274;61015;-30
2022/03/09 01:08:42;;;;;;;4.80;3.00;;;;;;;-7.51;68.20;99126.63;105105;1274;75557;-28
2022/03/09 01:11:11;;;;;;;7.40;3.60;;;;;;;-7.73;68.94;99128.44;104955;1274;76794;-28
2022/03/09 01:13:40;;;;;;;5.20;2.50;;;;;;;-7.97;69.43;99126.04;104833;1274;74506;-30
2022/03/09 01:16:09;;;;;;;4.90;2.50;;;;;;;-8.11;69.90;99127.61;104901;1274;61133;-28
2022/03/09 01:18:38;;;;;;;3.10;1.40;;;;;;;-7.77;69.27;99126.61;104922;1274;60965;-29
2022/03/09 01:21:07;;;;;;;2.90;1.40;;;;;;;-7.18;67.15;99134.48;104876;1274;75659;-29
2022/03/09 01:23:36;;;;;;;3.10;1.60;;;;;;;-6.95;65.81;99135.30;105086;1274;75906;-29
2022/03/09 01:26:05;;;;;;;2.50;1.50;;;;;;;-7.12;66.13;99136.46;104817;1274;73237;-29
2022/03/09 01:28:35;;;;;;;2.80;1.50;;;;;;;-7.34;67.04;99136.96;104788;1272;61194;-29
2022/03/09 01:31:06;;;;;;;3.50;1.70;;;;;;;-7.63;68.02;99137.48;104981;1271;61176;-29
2022/03/09 01:33:35;;;;;;;2.00;1.40;;;;;;;-7.74;68.59;99137.38;104977;1271;74703;-30
2022/03/09 01:36:06;;;;;;;2.10;1.30;;;;;;;-7.91;69.25;99137.30;104978;1271;73858;-28
2022/03/09 01:38:36;;;;;;;0.90;0.60;;;;;;;-8.06;70.00;99133.33;104942;1271;73356;-29
2022/03/09 01:41:05;;;;;;;0.50;0.50;;;;;;;-8.26;70.70;99136.77;105277;1271;61019;-28
2022/03/09 01:43:34;;;;;;;1.80;1.00;;;;;;;-8.10;70.49;99138.40;105113;1270;61022;-30
2022/03/09 01:46:04;;;;;;;1.70;0.90;;;;;;;-7.27;68.33;99143.14;104962;1271;75286;-29
2022/03/09 01:48:34;;;;;;;4.90;2.20;;;;;;;-6.87;66.16;99141.83;104981;1271;75051;-29
2022/03/09 01:51:02;;;;;;;27.90;12.30;;;;;;;-6.99;66.61;99145.46;105246;1271;74395;-29
2022/03/09 01:53:31;;;;;;;9.10;4.20;;;;;;;-7.30;67.31;99144.69;105006;1271;61280;-31
2022/03/09 01:56:00;;;;;;;6.70;1.80;;;;;;;-7.56;68.73;99144.02;105160;1271;62183;-29
2022/03/09 01:58:30;;;;;;;2.80;1.80;;;;;;;-7.80;69.45;99141.63;104782;1271;74446;-29
2022/03/09 02:00:59;;;;;;;2.10;1.20;;;;;;;-8.01;70.13;99141.73;105239;1271;75123;-29
2022/03/09 02:03:28;;;;;;;0.60;0.60;;;;;;;-8.24;71.14;99145.35;105039;1271;73480;-29
2022/03/09 02:06:00;;;;;;;4.40;1.80;;;;;;;-8.48;72.56;99145.79;105053;1269;61009;-29
2022/03/09 02:11:19;;;;;;;3.20;1.40;;;;;;;-7.54;69.45;99145.02;104914;1271;75515;-29
2022/03/09 02:13:52;;;;;;;2.40;1.20;;;;;;;-7.30;68.41;99145.20;105054;1271;76037;-28
2022/03/09 02:16:21;;;;;;;2.30;1.60;;;;;;;-7.44;68.54;99144.45;105075;1271;74672;-30
2022/03/09 02:18:50;;;;;;;4.00;1.90;;;;;;;-7.70;69.09;99146.80;105011;1271;61798;-29
2022/03/09 02:21:20;;;;;;;2.30;1.40;;;;;;;-7.91;69.88;99149.09;105059;1271;61111;-29
2022/03/09 02:23:49;;;;;;;2.40;1.50;;;;;;;-8.20;70.93;99151.23;104842;1271;73053;-29
2022/03/09 02:26:18;;;;;;;3.60;1.40;;;;;;;-8.32;71.53;99153.98;105246;1270;76001;-29
2022/03/09 02:28:48;;;;;;;1.70;0.80;;;;;;;-8.46;71.90;99154.36;105248;1271;74490;-29
2022/03/09 02:31:18;;;;;;;0.60;0.60;;;;;;;-8.48;72.41;99156.06;105083;1274;63590;-29
2022/03/09 02:33:47;;;;;;;3.00;1.70;;;;;;;-7.74;70.39;99159.29;105169;1271;61134;-29
2022/03/09 02:36:16;;;;;;;3.70;1.80;;;;;;;-7.38;68.72;99161.45;105099;1271;75648;-29
2022/03/09 02:38:46;;;;;;;2.60;1.60;;;;;;;-7.36;68.45;99166.49;104955;1271;76081;-29
2022/03/09 02:41:16;;;;;;;2.70;1.60;;;;;;;-7.67;68.73;99162.80;105276;1271;74407;-29
2022/03/09 02:43:45;;;;;;;4.10;2.10;;;;;;;-7.92;69.91;99157.02;105170;1271;61074;-29
2022/03/09 02:46:14;;;;;;;1.60;0.80;;;;;;;-8.14;70.72;99155.45;105243;1271;61126;-29
2022/03/09 02:48:45;;;;;;;1.50;0.90;;;;;;;-8.28;71.07;99160.19;105308;1271;75563;-30
2022/03/09 02:51:14;;;;;;;1.40;1.00;;;;;;;-8.50;72.05;99161.63;105237;1271;75605;-29
2022/03/09 02:53:43;;;;;;;3.10;0.90;;;;;;;-8.60;72.80;99164.84;104991;1271;74236;-29
2022/03/09 02:56:12;;;;;;;2.90;1.00;;;;;;;-8.15;71.48;99170.09;104922;1271;63625;-29
2022/03/09 02:58:43;;;;;;;2.70;1.50;;;;;;;-7.45;69.34;99166.89;105095;1271;62125;-29
2022/03/09 03:01:13;;;;;;;2.20;1.40;;;;;;;-7.37;68.21;99173.75;104923;1271;75539;-29
2022/03/09 03:03:44;;;;;;;2.20;0.90;;;;;;;-7.62;68.75;99176.77;105123;1272;75905;-29
2022/03/09 03:06:13;;;;;;;1.20;0.80;;;;;;;-7.91;69.97;99178.27;105051;1271;72309;-29
2022/03/09 03:08:45;;;;;;;1.70;1.20;;;;;;;-8.14;70.77;99176.34;105030;1271;61753;-29
2022/03/09 03:11:14;;;;;;;0.70;0.70;;;;;;;-8.42;71.69;99176.25;104956;1271;61163;-29
2022/03/09 03:13:48;;;;;;;5.30;2.40;;;;;;;-8.60;72.44;99176.13;104929;1271;74553;-30
2022/03/09 03:16:18;;;;;;;1.50;0.80;;;;;;;-8.74;73.15;99179.01;105280;1271;75994;-29
2022/03/09 03:18:48;;;;;;;2.80;1.50;;;;;;;-8.46;73.05;99183.33;105101;1271;74557;-29
2022/03/09 03:21:17;;;;;;;1.70;1.40;;;;;;;-7.62;69.68;99180.13;105102;1271;61107;-29
2022/03/09 03:23:50;;;;;;;2.70;1.60;;;;;;;-7.41;68.49;99183.56;105280;1271;62170;-29
2022/03/09 03:26:19;;;;;;;3.60;2.20;;;;;;;-7.65;68.91;99184.36;105136;1271;75600;-29
2022/03/09 03:28:52;;;;;;;4.50;2.10;;;;;;;-7.97;69.85;99185.18;105158;1271;76007;-29
2022/03/09 03:31:21;;;;;;;3.70;1.70;;;;;;;-8.16;70.87;99186.94;105285;1271;72506;-29
2022/03/09 03:33:52;;;;;;;3.80;1.90;;;;;;;-8.34;71.67;99184.79;104901;1272;61974;-29
2022/03/09 03:36:21;;;;;;;6.40;3.50;;;;;;;-8.58;72.05;99185.21;105277;1271;62077;-29
2022/03/09 03:38:53;;;;;;;2.00;1.20;;;;;;;-8.78;73.20;99187.59;105139;1269;75524;-29
2022/03/09 03:41:22;;;;;;;2.80;1.30;;;;;;;-8.54;72.91;99184.84;104672;1274;452222;-29
2022/03/09 03:43:52;;;;;;;7.20;3.70;;;;;;;-7.71;70.17;99186.27;105147;1271;74297;-29
2022/03/09 03:46:21;;;;;;;6.60;3.80;;;;;;;-7.48;68.74;99188.16;105081;1271;61411;-29
2022/03/09 03:48:50;;;;;;;3.10;1.90;;;;;;;-7.49;68.59;99190.36;105170;1271;61806;-29
2022/03/09 03:51:19;;;;;;;3.40;2.50;;;;;;;-7.83;69.66;99183.45;105024;1271;75288;-29
2022/03/09 03:53:48;;;;;;;2.30;1.60;;;;;;;-8.12;70.44;99188.77;105013;1271;76073;-29
2022/03/09 03:56:17;;;;;;;1.60;1.20;;;;;;;-8.43;71.80;99188.70;105058;1271;73398;-29
2022/03/09 03:58:46;;;;;;;6.10;2.40;;;;;;;-8.72;73.28;99187.59;105297;1271;62033;-29
2022/03/09 04:01:15;;;;;;;1.30;0.90;;;;;;;-8.93;74.23;99193.49;105335;1271;61129;-29
2022/03/09 04:03:45;;;;;;;1.70;0.80;;;;;;;-8.67;74.16;99195.16;105136;1271;75518;-29
2022/03/09 04:06:14;;;;;;;1.50;1.30;;;;;;;-7.90;71.29;99195.61;105318;1271;75993;-29
2022/03/09 04:08:44;;;;;;;1.90;1.20;;;;;;;-7.52;70.05;99191.73;105301;1270;73654;-29
2022/03/09 04:11:13;;;;;;;1.00;0.70;;;;;;;-7.75;69.85;99189.30;105178;1271;62003;-29
2022/03/09 04:13:42;;;;;;;1.00;0.90;;;;;;;-8.07;70.57;99191.98;105309;1271;62039;-29
2022/03/09 04:16:11;;;;;;;1.50;1.00;;;;;;;-8.27;71.02;99192.20;105332;1271;75296;-29
2022/03/09 04:18:42;;;;;;;2.80;1.50;;;;;;;-8.59;72.50;99191.94;105287;1271;75995;-29
2022/03/09 04:21:11;;;;;;;3.30;1.40;;;;;;;-8.83;73.28;99194.16;105181;1271;74418;-29
2022/03/09 04:23:41;;;;;;;3.90;1.80;;;;;;;-8.99;73.71;99196.02;105134;1271;63458;-29
2022/03/09 04:26:10;;;;;;;4.10;1.50;;;;;;;-8.51;73.03;99198.81;105259;1271;61155;-29
2022/03/09 04:28:39;;;;;;;7.40;2.30;;;;;;;-7.77;70.56;99206.35;105294;1271;75576;-29
2022/03/09 04:31:08;;;;;;;5.80;2.90;;;;;;;-7.61;69.11;99206.44;105267;1271;74667;-29
2022/03/09 04:33:38;;;;;;;6.30;3.00;;;;;;;-7.78;69.23;99206.52;105284;1271;72875;-29
2022/03/09 04:36:10;;;;;;;5.00;2.20;;;;;;;-8.06;70.05;99206.12;105131;1271;61127;-31
2022/03/09 04:38:39;;;;;;;3.40;2.00;;;;;;;-8.35;71.14;99209.23;105365;1270;60992;-28
2022/03/09 04:41:10;;;;;;;4.60;2.30;;;;;;;-8.70;72.61;99212.66;105123;1271;74780;-28
2022/03/09 04:43:40;;;;;;;1.90;1.30;;;;;;;-8.98;73.90;99210.98;105075;1271;76008;-28
2022/03/09 04:46:12;;;;;;;2.20;1.40;;;;;;;-8.96;73.98;99213.35;105078;1270;74382;-28
2022/03/09 04:48:41;;;;;;;1.90;1.10;;;;;;;-8.41;72.95;99217.66;105012;1271;61033;-29
2022/03/09 04:51:14;;;;;;;;;;;;;;;-7.75;69.97;99222.19;105215;1271;61022;-29
2022/03/09 04:53:44;;;;;;;1.70;1.30;;;;;;;-7.66;69.61;99223.17;105009;1271;74393;-30
2022/03/09 04:56:15;;;;;;;4.50;1.00;;;;;;;-8.02;70.52;99223.80;105075;1271;76060;-29
2022/03/09 04:58:45;;;;;;;4.00;2.70;;;;;;;-8.20;71.04;99223.18;104961;1271;74262;-29
2022/03/09 05:01:15;;;;;;;3.40;1.70;;;;;;;-8.33;72.01;99225.23;104971;1271;61844;-29
2022/03/09 05:03:44;;;;;;;5.50;2.00;;;;;;;-8.48;72.37;99222.23;104984;1271;62062;-29
2022/03/09 05:06:14;;;;;;;2.10;1.40;;;;;;;-8.49;72.67;99227.63;105177;1271;75546;-30
2022/03/09 05:08:44;;;;;;;2.20;1.20;;;;;;;-8.60;73.31;99225.13;105041;1271;76085;-29
2022/03/09 05:11:13;;;;;;;0.70;0.70;;;;;;;-8.37;73.21;99231.29;104866;1272;74372;-29
2022/03/09 05:13:42;;;;;;;6.50;3.20;;;;;;;-7.51;70.26;99236.92;105010;1274;61033;-29
2022/03/09 05:16:12;;;;;;;7.70;3.80;;;;;;;-6.89;68.09;99242.61;104974;1271;62619;-29
2022/03/09 05:18:42;;;;;;;4.60;2.80;;;;;;;-7.01;67.77;99245.23;104826;1274;75376;-29
2022/03/09 05:21:12;;;;;;;7.90;3.60;;;;;;;-7.23;68.55;99246.71;104906;1270;75992;-29
2022/03/09 05:23:41;;;;;;;8.80;4.80;;;;;;;-7.37;68.72;99254.72;105039;1271;73105;-29
2022/03/09 05:26:10;;;;;;;2.50;1.80;;;;;;;-7.57;69.66;99253.81;105318;1271;62791;-29
2022/03/09 05:28:40;;;;;;;4.10;2.70;;;;;;;-7.62;70.19;99254.67;105281;1271;61630;-29
2022/03/09 05:31:09;;;;;;;10.20;3.40;;;;;;;-7.76;70.79;99255.90;105200;1274;75630;-29
2022/03/09 05:33:40;;;;;;;11.40;3.70;;;;;;;-7.88;71.10;99255.77;105177;1271;74353;-29
2022/03/09 05:36:09;;;;;;;6.80;3.00;;;;;;;-7.94;71.86;99255.98;105082;1271;74339;-28
2022/03/09 05:38:41;;;;;;;6.00;2.90;;;;;;;-7.99;72.17;99258.52;105014;1271;62140;-29
2022/03/09 05:41:10;;;;;;;6.90;3.30;;;;;;;-7.99;72.13;99261.21;105143;1272;62289;-29
2022/03/09 05:43:42;;;;;;;6.70;3.90;;;;;;;-7.91;72.45;99263.03;105128;1271;75505;-27
2022/03/09 05:46:11;;;;;;;2.60;1.60;;;;;;;-7.86;71.87;99265.21;104924;1271;76006;-28
2022/03/09 05:48:40;;;;;;;5.00;2.80;;;;;;;-7.92;72.33;99268.77;104843;1271;73263;-28
2022/03/09 05:51:26;;;;;;;5.00;3.30;;;;;;;-8.04;72.67;99270.65;104964;1271;62073;-28
2022/03/09 05:53:56;;;;;;;8.30;3.30;;;;;;;-7.73;71.96;99277.83;105177;1271;61032;-27
2022/03/09 05:56:26;;;;;;;2.00;1.60;;;;;;;-7.20;70.32;99282.65;105311;1271;75373;-28
2022/03/09 05:58:56;;;;;;;5.00;3.10;;;;;;;-6.85;69.12;99285.48;105210;1270;75990;-30
2022/03/09 06:01:25;;;;;;;5.80;2.90;;;;;;;-6.85;68.76;99288.52;104967;1271;74482;-28
2022/03/09 06:03:54;;;;;;;2.80;1.60;;;;;;;-6.90;69.61;99286.01;105139;1271;61250;-28
2022/03/09 06:06:23;;;;;;;2.60;1.70;;;;;;;-7.07;70.10;99281.55;105162;1271;61637;-29
2022/03/09 06:08:53;;;;;;;8.00;4.10;;;;;;;-7.13;70.77;99288.19;105061;1271;75625;-29
2022/03/09 06:11:22;;;;;;;19.80;8.70;;;;;;;-7.25;70.37;99288.58;105072;1271;75980;-29
2022/03/09 06:13:51;;;;;;;9.30;5.10;;;;;;;-7.21;71.04;99291.10;104904;1271;74358;-29
2022/03/09 06:16:20;;;;;;;6.00;3.40;;;;;;;-7.14;70.57;99290.21;105117;1271;61917;-29
2022/03/09 06:19:04;;;;;;;17.10;7.90;;;;;;;-7.27;71.07;99292.98;105236;1271;62053;-30
2022/03/09 06:21:35;;;;;;;8.20;4.30;;;;;;;-7.25;70.79;99299.88;105134;1271;74218;-32
2022/03/09 06:24:04;;;;;;;15.70;7.90;;;;;;;-6.90;69.46;99297.66;104977;1272;75000;-30
2022/03/09 06:26:33;;;;;;;7.40;4.30;;;;;;;-6.29;68.28;99296.87;104979;1274;73143;-30
2022/03/09 06:29:05;;;;;;;13.20;6.40;;;;;;;-6.04;67.15;99303.41;105107;1274;61086;-29
2022/03/09 06:31:35;;;;;;;8.70;4.80;;;;;;;-6.04;66.97;99304.42;104891;1272;61314;-29
2022/03/09 06:34:04;;;;;;;9.00;5.70;;;;;;;-6.21;66.68;99307.11;105137;1271;75636;-29
2022/03/09 06:36:33;;;;;;;6.60;3.00;;;;;;;-6.29;67.78;99307.02;105145;1271;75804;-29
2022/03/09 06:39:01;;;;;;;5.70;3.30;;;;;;;-6.30;67.45;99308.20;105196;1271;74394;-29
2022/03/09 06:41:31;;;;;;;5.40;3.10;;;;;;;-6.20;67.73;99307.10;105146;1271;61153;-29
2022/03/09 06:44:00;;;;;;;8.40;4.00;;;;;;;-6.12;67.15;99313.45;105132;1270;61976;-29
2022/03/09 06:46:29;;;;;;;10.50;4.70;;;;;;;-6.04;67.20;99311.02;105055;1271;75782;-30
2022/03/09 06:49:00;;;;;;;10.30;6.20;;;;;;;-6.03;67.01;99312.19;104958;1271;73926;-29
2022/03/09 06:51:30;;;;;;;28.40;12.80;;;;;;;-6.00;67.43;99312.14;104927;1271;74247;-30
2022/03/09 06:53:59;;;;;;;9.50;5.20;;;;;;;-5.79;67.17;99311.24;105077;1271;62564;-29
2022/03/09 06:56:28;;;;;;;7.30;4.30;;;;;;;-5.67;66.47;99315.52;104980;1271;61704;-29
2022/03/09 06:58:57;;;;;;;5.40;3.00;;;;;;;-5.60;65.92;99318.48;105092;1271;75534;-29
2022/03/09 07:01:26;;;;;;;7.70;3.30;;;;;;;-5.48;65.79;99318.19;105143;1271;76015;-29
2022/03/09 07:03:56;;;;;;;6.30;3.70;;;;;;;-5.31;64.87;99314.75;105162;1271;73569;-29
2022/03/09 07:06:25;;;;;;;8.70;4.40;;;;;;;-5.10;64.26;99315.52;105074;1271;61848;-29
2022/03/09 07:08:54;;;;;;;9.90;5.00;;;;;;;-5.01;63.36;99311.50;104936;1270;61170;-29
2022/03/09 07:11:24;;;;;;;7.80;4.00;;;;;;;-4.73;64.36;99316.35;104948;1271;75448;-30
2022/03/09 07:14:13;;;;;;;6.30;3.40;;;;;;;-4.79;62.35;99314.24;104993;1271;76253;-27
2022/03/09 07:16:42;;;;;;;15.10;8.30;;;;;;;-4.90;62.36;99312.05;105154;1271;72626;-30
2022/03/09 07:19:11;;;;;;;7.50;2.30;;;;;;;-4.70;62.98;99313.09;105130;1271;61328;-28
2022/03/09 07:21:40;;;;;;;4.80;3.10;;;;;;;-4.50;62.02;99311.95;105149;1271;62213;-29
2022/03/09 07:24:09;;;;;;;18.90;5.90;;;;;;;-4.26;62.92;99312.06;105185;1271;75357;-29
2022/03/09 07:26:41;;;;;;;7.40;3.20;;;;;;;-4.23;61.40;99313.38;105176;1270;75975;-29
2022/03/09 07:29:13;;;;;;;2.60;1.30;;;;;;;-4.39;60.81;99306.86;105142;1271;74473;-29
2022/03/09 07:31:42;;;;;;;4.80;2.90;;;;;;;-4.42;60.90;99308.27;105113;1271;61162;-29
2022/03/09 07:34:12;;;;;;;5.50;3.50;;;;;;;-4.43;60.91;99310.48;105100;1274;61036;-29
2022/03/09 07:36:42;;;;;;;4.00;2.60;;;;;;;-4.07;61.25;99308.70;105068;1271;75194;-28
2022/03/09 07:39:11;;;;;;;9.20;5.60;;;;;;;-3.92;60.17;99309.11;105151;1271;74833;-29
2022/03/09 07:41:42;;;;;;;7.40;4.00;;;;;;;-3.96;59.07;99304.45;105143;1271;74329;-29
2022/03/09 07:44:11;;;;;;;5.50;3.20;;;;;;;-3.78;59.61;99307.17;104974;1271;61513;-28
2022/03/09 07:46:42;;;;;;;7.60;4.80;;;;;;;-3.73;58.81;99307.23;105180;1271;62192;-29
2022/03/09 07:49:11;;;;;;;4.60;3.10;;;;;;;-3.58;58.69;99309.67;105175;1271;75543;-29
2022/03/09 07:51:40;;;;;;;5.10;2.90;;;;;;;-3.44;58.56;99308.73;105058;1271;75943;-29
2022/03/09 07:54:09;;;;;;;6.00;3.20;;;;;;;-3.30;58.58;99306.08;104943;1271;72397;-28
2022/03/09 07:56:38;;;;;;;2.60;1.70;;;;;;;-3.46;58.37;99303.33;105137;1270;61276;-28
2022/03/09 07:59:08;;;;;;;3.00;1.90;;;;;;;-3.31;57.32;99299.63;104971;1271;61908;-28
2022/03/09 08:01:40;;;;;;;8.50;3.40;;;;;;;-3.40;57.68;99299.64;104750;1271;74516;-29
2022/03/09 08:04:12;;;;;;;2.70;1.70;;;;;;;-4.03;57.62;99294.89;104773;1271;75788;-28
2022/03/09 08:06:41;;;;;;;2.60;1.70;;;;;;;-3.62;58.15;99296.69;105104;1271;74448;-28
2022/03/09 08:09:10;;;;;;;3.20;2.10;;;;;;;-3.25;58.69;99299.50;105033;1274;61259;-29
2022/03/09 08:11:41;;;;;;;4.70;2.30;;;;;;;-3.31;57.58;99298.27;104924;1270;62628;-29
2022/03/09 08:14:10;;;;;;;4.00;2.10;;;;;;;-3.76;57.77;99293.20;105132;1271;75553;-29
2022/03/09 08:16:39;;;;;;;4.10;2.60;;;;;;;-3.87;58.14;99291.39;105214;1271;76001;-28
2022/03/09 08:19:11;;;;;;;2.50;1.50;;;;;;;-3.36;58.27;99293.11;105152;1271;72899;-28
2022/03/09 08:21:41;;;;;;;2.80;1.60;;;;;;;-3.76;57.93;99291.34;105218;1271;61009;-29
2022/03/09 08:24:12;;;;;;;4.20;2.80;;;;;;;-3.13;57.80;99294.50;105234;1271;61116;-29
2022/03/09 08:26:42;;;;;;;5.60;3.00;;;;;;;-3.23;56.96;99290.98;105157;1271;74179;-29
2022/03/09 08:29:14;;;;;;;3.60;2.10;;;;;;;-3.61;57.27;99292.41;104815;1272;74530;-28
2022/03/09 08:31:43;;;;;;;3.10;1.60;;;;;;;-3.17;56.79;99293.56;105084;1271;72876;-29
2022/03/09 08:34:15;;;;;;;4.50;2.90;;;;;;;-2.86;56.24;99289.31;104988;1271;61156;-29
2022/03/09 08:36:44;;;;;;;5.40;2.80;;;;;;;-2.93;56.81;99289.48;104950;1271;61224;-29
2022/03/09 08:39:17;;;;;;;5.90;2.70;;;;;;;-2.74;56.68;99290.77;105007;1271;74128;-29
2022/03/09 08:41:46;;;;;;;4.40;2.30;;;;;;;-2.29;56.18;99287.81;105196;1271;74523;-28
2022/03/09 08:44:40;;;;;;;5.90;2.30;;;;;;;-2.64;55.48;99283.41;105046;1271;72953;-28
2022/03/09 08:47:10;;;;;;;4.10;2.00;;;;;;;-2.27;56.64;99285.05;105125;1271;61011;-29
2022/03/09 08:49:40;;;;;;;3.70;2.40;;;;;;;-1.68;55.03;99286.77;105043;1271;61173;-28
2022/03/09 08:52:11;;;;;;;5.00;2.30;;;;;;;-1.84;54.57;99284.13;105041;1271;74729;-28
2022/03/09 08:54:47;;;;;;;3.80;2.10;;;;;;;-2.03;54.12;99285.64;105142;1271;74599;-28
2022/03/09 08:57:18;;;;;;;3.70;2.30;;;;;;;-1.33;53.48;99278.30;105149;1271;72231;-28
2022/03/09 08:59:48;;;;;;;7.80;3.90;;;;;;;-1.18;52.24;99278.38;105132;1271;61163;-28
2022/03/09 09:02:19;;;;;;;4.10;2.70;;;;;;;-2.08;53.42;99276.06;105002;1272;61127;-30
2022/03/09 09:04:50;;;;;;;6.70;3.10;;;;;;;-1.76;54.23;99276.74;105014;1271;72859;-28
2022/03/09 09:07:20;;;;;;;3.50;1.70;;;;;;;-2.19;54.20;99278.05;104938;1271;73518;-28
2022/03/09 09:09:51;;;;;;;3.70;2.40;;;;;;;-2.14;54.16;99278.09;104954;1271;73198;-28
2022/03/09 09:12:22;;;;;;;8.10;4.20;;;;;;;-1.87;54.75;99275.16;104792;1271;61109;-29
2022/03/09 09:14:52;;;;;;;3.30;2.40;;;;;;;-1.57;53.56;99275.56;105064;1272;61158;-29
2022/03/09 09:17:22;;;;;;;3.90;2.50;;;;;;;-2.09;53.98;99267.74;105097;1269;72450;-28
2022/03/09 09:20:06;;;;;;;5.00;2.70;;;;;;;-1.65;55.00;99270.11;105144;1271;74575;-28
2022/03/09 09:22:42;;;;;;;6.80;3.60;;;;;;;-1.25;52.98;99270.73;104904;1272;71699;-28
2022/03/09 09:25:32;;;;;;;;;;;;;;;-0.81;52.16;99266.50;105195;1271;61143;-28
2022/03/09 09:28:02;;;;;;;5.90;2.80;;;;;;;-1.16;53.04;99270.30;105210;1271;61144;-29
2022/03/09 09:30:32;;;;;;;9.30;3.30;;;;;;;-1.37;52.06;99267.48;105129;1271;74122;-28
2022/03/09 09:33:03;;;;;;;8.30;3.70;;;;;;;-1.12;53.24;99269.16;105137;1271;74624;-28
2022/03/09 09:35:33;;;;;;;6.20;2.00;;;;;;;-1.63;52.42;99268.08;105084;1274;71545;-29
2022/03/09 09:38:08;;;;;;;3.50;2.10;;;;;;;-0.60;51.06;99266.52;105143;1270;61896;-28
2022/03/09 09:40:41;;;;;;;5.90;2.20;;;;;;;-0.14;51.69;99271.39;104821;1270;61210;-28
2022/03/09 09:43:14;;;;;;;7.40;3.70;;;;;;;-0.22;50.13;99270.79;104806;1271;74216;-28
2022/03/09 09:45:45;;;;;;;3.50;2.50;;;;;;;-0.48;50.35;99267.88;104732;1271;74570;-28
2022/03/09 09:48:14;;;;;;;6.50;2.30;;;;;;;-0.16;51.41;99269.20;105073;1271;73106;-29
2022/03/09 09:50:44;;;;;;;4.10;1.90;;;;;;;0.07;50.54;99268.11;104981;1271;61115;-29
2022/03/09 09:53:14;;;;;;;1.80;1.50;;;;;;;-0.57;51.80;99268.16;104933;1271;61118;-28
2022/03/09 09:55:45;;;;;;;2.40;1.40;;;;;;;-0.43;51.38;99272.15;104978;1271;73298;-28
2022/03/09 09:58:18;;;;;;;3.60;2.10;;;;;;;0.30;48.49;99272.92;104758;1272;74597;-29
2022/03/09 10:00:47;;;;;;;4.20;1.70;;;;;;;0.79;48.36;99271.00;104641;1271;71350;-29
2022/03/09 10:03:17;;;;;;;4.50;1.90;;;;;;;1.11;48.49;99271.81;104974;1271;61111;-29
2022/03/09 10:05:47;;;;;;;3.40;2.10;;;;;;;0.92;47.51;99274.08;104944;1270;61065;-28
2022/03/09 10:08:18;;;;;;;4.80;2.50;;;;;;;0.89;46.26;99276.44;104987;1271;72978;-28
2022/03/09 10:11:02;;;;;;;3.60;1.80;;;;;;;1.71;45.23;99279.88;105089;1271;74570;-29
2022/03/09 10:13:31;;;;;;;3.70;1.90;;;;;;;1.25;46.21;99278.27;105161;1271;73152;-29
2022/03/09 10:16:21;;;;;;;3.50;1.80;;;;;;;0.79;46.13;99276.09;105081;1271;61115;-29
2022/03/09 10:18:54;;;;;;;2.40;1.20;;;;;;;1.33;46.19;99277.93;104955;1270;61144;-28
2022/03/09 10:21:29;;;;;;;3.70;1.80;;;;;;;2.10;44.01;99278.27;104782;1271;74086;-29
2022/03/09 10:24:06;;;;;;;1.70;1.30;;;;;;;1.76;45.94;99283.11;104831;1271;72350;-29
2022/03/09 10:26:39;;;;;;;3.70;1.90;;;;;;;1.40;45.58;99280.27;104822;1271;73111;-29
2022/03/09 10:29:14;;;;;;;2.20;1.50;;;;;;;0.93;47.48;99277.81;104770;1274;61103;-30
2022/03/09 10:31:48;;;;;;;4.10;2.40;;;;;;;1.32;46.34;99273.55;104770;1272;61100;-29
2022/03/09 10:34:24;;;;;;;5.90;3.60;;;;;;;0.15;48.47;99279.91;104719;1274;74309;-28
2022/03/09 10:37:05;;;;;;;4.10;2.40;;;;;;;-0.17;50.01;99276.23;104675;1274;74493;-29
2022/03/09 10:39:40;;;;;;;5.70;2.90;;;;;;;-0.36;50.14;99277.70;104653;1274;72970;-29
2022/03/09 10:42:22;;;;;;;4.30;2.00;;;;;;;-0.34;50.65;99276.65;104791;1271;61027;-29
2022/03/09 10:44:55;;;;;;;3.30;2.00;;;;;;;-0.65;50.91;99281.55;104744;1274;61082;-28
2022/03/09 10:47:31;;;;;;;2.60;1.90;;;;;;;-0.72;50.97;99277.66;104969;1271;72784;-28
2022/03/09 10:50:30;;;;;;;4.00;2.30;;;;;;;0.41;48.91;99277.13;104692;1272;73567;-31
2022/03/09 10:53:01;;;;;;;2.90;1.90;;;;;;;1.28;46.72;99275.10;104734;1272;71800;-29
2022/03/09 10:55:33;;;;;;;2.60;1.60;;;;;;;0.91;47.63;99272.44;104750;1272;61069;-29
2022/03/09 10:58:08;;;;;;;3.40;1.90;;;;;;;0.80;47.85;99274.70;104661;1272;61035;-29
2022/03/09 11:00:39;;;;;;;4.80;2.10;;;;;;;0.44;48.76;99274.67;104800;1274;73894;-29
2022/03/09 11:03:11;;;;;;;4.10;2.10;;;;;;;0.31;48.84;99268.98;104744;1274;74606;-29
2022/03/09 11:05:52;;;;;;;4.10;2.30;;;;;;;0.21;48.88;99264.36;104707;1272;71190;-29
2022/03/09 11:08:30;;;;;;;3.70;1.70;;;;;;;0.09;49.41;99260.36;104799;1274;61099;-28
2022/03/09 11:11:02;;;;;;;3.50;2.40;;;;;;;-0.18;49.45;99257.98;104983;1274;61172;-28
2022/03/09 11:13:53;;;;;;;4.60;2.50;;;;;;;-0.39;50.87;99259.73;105107;1271;73917;-28
2022/03/09 11:16:23;;;;;;;7.10;2.70;;;;;;;-0.03;49.67;99260.23;104670;1274;73756;-29
2022/03/09 11:18:54;;;;;;;5.10;2.90;;;;;;;-0.17;49.99;99260.21;105142;1271;72831;-29
2022/03/09 11:21:24;;;;;;;3.20;1.90;;;;;;;-0.07;50.19;99255.41;104769;1273;61925;-29
2022/03/09 11:23:54;;;;;;;4.90;2.10;;;;;;;0.24;48.73;99259.14;104827;1272;61170;-29
2022/03/09 11:26:26;;;;;;;4.60;1.90;;;;;;;0.76;47.53;99258.14;104769;1271;72524;-29
2022/03/09 11:29:14;;;;;;;5.20;3.00;;;;;;;0.54;47.90;99257.05;104804;1272;74760;-29
2022/03/09 11:31:52;;;;;;;5.10;2.60;;;;;;;-0.08;49.46;99253.23;104617;1271;72814;-29
2022/03/09 11:34:54;;;;;;;3.10;2.00;;;;;;;0.15;49.47;99253.13;104794;1272;61035;-29
2022/03/09 11:37:35;;;;;;;4.20;2.90;;;;;;;0.41;48.26;99254.79;104702;1271;61058;-29
2022/03/09 11:40:05;;;;;;;4.30;2.70;;;;;;;0.77;48.26;99251.77;104767;1271;72793;-29
2022/03/09 11:42:41;;;;;;;4.90;2.80;;;;;;;0.95;46.33;99251.23;104705;1271;74613;-29
2022/03/09 11:45:14;;;;;;;5.90;3.30;;;;;;;0.88;47.44;99246.53;104764;1272;72348;-29
2022/03/09 11:48:12;;;;;;;5.60;2.90;;;;;;;0.76;46.81;99250.92;104929;1271;61046;-28
2022/03/09 11:50:46;;;;;;;2.00;1.20;;;;;;;0.57;47.42;99252.46;104780;1271;61107;-29